sensor_id;sensor_type;location;lat;lon;timestamp;temperature;humidity
31695;DHT22;18289;51.330;4.946;2022-07-19T00:00:32;23.20;95.30
31695;DHT22;18289;51.330;4.946;2022-07-19T00:02:58;23.10;95.50
31695;DHT22;18289;51.330;4.946;2022-07-19T00:05:24;23.20;95.70
31695;DHT22;18289;51.330;4.946;2022-07-19T00:07:51;23.10;96.10
31695;DHT22;18289;51.330;4.946;2022-07-19T00:10:18;23.10;96.20
31695;DHT22;18289;51.330;4.946;2022-07-19T00:12:45;23.10;96.90
31695;DHT22;18289;51.330;4.946;2022-07-19T00:15:13;23.10;96.70
31695;DHT22;18289;51.330;4.946;2022-07-19T00:17:41;23.10;96.70
31695;DHT22;18289;51.330;4.946;2022-07-19T00:20:09;23.00;96.70
31695;DHT22;18289;51.330;4.946;2022-07-19T00:22:35;23.00;97.20
31695;DHT22;18289;51.330;4.946;2022-07-19T00:25:02;22.90;97.40
31695;DHT22;18289;51.330;4.946;2022-07-19T00:27:28;23.00;97.00
31695;DHT22;18289;51.330;4.946;2022-07-19T00:29:53;22.90;97.20
31695;DHT22;18289;51.330;4.946;2022-07-19T00:32:19;22.80;97.30
31695;DHT22;18289;51.330;4.946;2022-07-19T00:34:45;22.80;97.30
31695;DHT22;18289;51.330;4.946;2022-07-19T00:37:11;22.80;97.50
31695;DHT22;18289;51.330;4.946;2022-07-19T00:39:37;22.70;97.80
31695;DHT22;18289;51.330;4.946;2022-07-19T00:42:03;22.70;98.40
31695;DHT22;18289;51.330;4.946;2022-07-19T00:44:29;22.70;98.70
31695;DHT22;18289;51.330;4.946;2022-07-19T00:46:56;22.70;99.00
31695;DHT22;18289;51.330;4.946;2022-07-19T00:49:22;22.70;99.10
31695;DHT22;18289;51.330;4.946;2022-07-19T00:51:50;22.70;98.80
31695;DHT22;18289;51.330;4.946;2022-07-19T00:54:19;22.70;99.20
31695;DHT22;18289;51.330;4.946;2022-07-19T00:56:49;22.60;99.60
31695;DHT22;18289;51.330;4.946;2022-07-19T00:59:15;22.50;99.20
31695;DHT22;18289;51.330;4.946;2022-07-19T01:01:44;22.50;99.40
31695;DHT22;18289;51.330;4.946;2022-07-19T01:04:11;22.50;99.50
31695;DHT22;18289;51.330;4.946;2022-07-19T01:06:37;22.50;99.60
31695;DHT22;18289;51.330;4.946;2022-07-19T01:09:04;22.50;99.50
31695;DHT22;18289;51.330;4.946;2022-07-19T01:11:31;22.50;99.60
31695;DHT22;18289;51.330;4.946;2022-07-19T01:13:57;22.40;99.90
31695;DHT22;18289;51.330;4.946;2022-07-19T01:16:23;22.30;99.90
31695;DHT22;18289;51.330;4.946;2022-07-19T01:18:49;22.30;99.90
31695;DHT22;18289;51.330;4.946;2022-07-19T01:21:20;22.20;99.90
31695;DHT22;18289;51.330;4.946;2022-07-19T01:23:46;22.20;99.90
31695;DHT22;18289;51.330;4.946;2022-07-19T01:26:12;22.10;99.90
31695;DHT22;18289;51.330;4.946;2022-07-19T01:28:38;22.10;99.90
31695;DHT22;18289;51.330;4.946;2022-07-19T01:31:04;22.10;99.90
31695;DHT22;18289;51.330;4.946;2022-07-19T01:33:30;22.00;99.90
31695;DHT22;18289;51.330;4.946;2022-07-19T01:35:56;21.90;99.90
31695;DHT22;18289;51.330;4.946;2022-07-19T01:38:22;21.80;99.90
31695;DHT22;18289;51.330;4.946;2022-07-19T01:40:48;21.80;99.90
31695;DHT22;18289;51.330;4.946;2022-07-19T01:43:14;21.80;99.90
31695;DHT22;18289;51.330;4.946;2022-07-19T01:45:40;21.80;99.90
31695;DHT22;18289;51.330;4.946;2022-07-19T01:48:05;21.80;99.90
31695;DHT22;18289;51.330;4.946;2022-07-19T01:50:31;21.70;99.90
31695;DHT22;18289;51.330;4.946;2022-07-19T01:52:57;21.70;99.90
31695;DHT22;18289;51.330;4.946;2022-07-19T01:55:23;21.70;99.90
31695;DHT22;18289;51.330;4.946;2022-07-19T01:57:50;21.70;99.90
31695;DHT22;18289;51.330;4.946;2022-07-19T02:00:16;21.70;99.90
31695;DHT22;18289;51.330;4.946;2022-07-19T02:02:42;21.60;99.90
31695;DHT22;18289;51.330;4.946;2022-07-19T02:05:08;21.70;99.90
31695;DHT22;18289;51.330;4.946;2022-07-19T02:07:34;21.60;99.90
31695;DHT22;18289;51.330;4.946;2022-07-19T02:10:00;21.60;99.90
31695;DHT22;18289;51.330;4.946;2022-07-19T02:12:26;21.60;99.90
31695;DHT22;18289;51.330;4.946;2022-07-19T02:14:52;21.50;99.90
31695;DHT22;18289;51.330;4.946;2022-07-19T02:17:18;21.50;99.90
31695;DHT22;18289;51.330;4.946;2022-07-19T02:19:44;21.40;99.90
31695;DHT22;18289;51.330;4.946;2022-07-19T02:22:10;21.40;99.90
31695;DHT22;18289;51.330;4.946;2022-07-19T02:24:35;21.40;99.90
31695;DHT22;18289;51.330;4.946;2022-07-19T02:27:01;21.20;99.90
31695;DHT22;18289;51.330;4.946;2022-07-19T03:32:05;20.60;99.90
31695;DHT22;18289;51.330;4.946;2022-07-19T03:34:31;20.60;99.90
31695;DHT22;18289;51.330;4.946;2022-07-19T03:36:57;20.60;99.90
31695;DHT22;18289;51.330;4.946;2022-07-19T03:39:22;20.50;99.90
31695;DHT22;18289;51.330;4.946;2022-07-19T03:41:48;20.60;99.90
31695;DHT22;18289;51.330;4.946;2022-07-19T03:44:14;20.60;99.90
31695;DHT22;18289;51.330;4.946;2022-07-19T03:46:40;20.50;99.90
31695;DHT22;18289;51.330;4.946;2022-07-19T03:49:06;20.50;99.90
31695;DHT22;18289;51.330;4.946;2022-07-19T03:51:32;20.50;99.90
31695;DHT22;18289;51.330;4.946;2022-07-19T03:53:58;20.50;99.90
31695;DHT22;18289;51.330;4.946;2022-07-19T03:56:24;20.60;99.90
31695;DHT22;18289;51.330;4.946;2022-07-19T03:58:50;20.50;99.90
31695;DHT22;18289;51.330;4.946;2022-07-19T04:01:16;20.60;99.90
31695;DHT22;18289;51.330;4.946;2022-07-19T04:03:42;20.60;99.90
31695;DHT22;18289;51.330;4.946;2022-07-19T04:06:10;20.50;99.90
31695;DHT22;18289;51.330;4.946;2022-07-19T04:08:37;20.60;99.90
31695;DHT22;18289;51.330;4.946;2022-07-19T04:11:04;20.50;99.90
31695;DHT22;18289;51.330;4.946;2022-07-19T04:13:32;20.60;99.90
31695;DHT22;18289;51.330;4.946;2022-07-19T04:15:58;20.60;99.90
31695;DHT22;18289;51.330;4.946;2022-07-19T04:18:24;20.60;99.90
31695;DHT22;18289;51.330;4.946;2022-07-19T04:20:50;20.50;99.90
31695;DHT22;18289;51.330;4.946;2022-07-19T04:23:16;20.70;99.90
31695;DHT22;18289;51.330;4.946;2022-07-19T04:25:43;20.70;99.90
31695;DHT22;18289;51.330;4.946;2022-07-19T04:28:08;20.60;99.90
31695;DHT22;18289;51.330;4.946;2022-07-19T04:30:34;20.70;99.90
31695;DHT22;18289;51.330;4.946;2022-07-19T04:33:00;20.60;99.90
31695;DHT22;18289;51.330;4.946;2022-07-19T04:35:26;20.70;99.90
31695;DHT22;18289;51.330;4.946;2022-07-19T04:37:52;20.70;99.90
31695;DHT22;18289;51.330;4.946;2022-07-19T04:40:18;20.70;99.90
31695;DHT22;18289;51.330;4.946;2022-07-19T04:42:44;20.80;99.90
31695;DHT22;18289;51.330;4.946;2022-07-19T04:45:10;20.80;99.90
31695;DHT22;18289;51.330;4.946;2022-07-19T04:47:36;20.80;99.90
31695;DHT22;18289;51.330;4.946;2022-07-19T04:50:02;20.90;99.90
31695;DHT22;18289;51.330;4.946;2022-07-19T04:52:28;20.90;99.90
31695;DHT22;18289;51.330;4.946;2022-07-19T04:54:54;21.00;99.90
31695;DHT22;18289;51.330;4.946;2022-07-19T04:57:20;20.90;99.90
31695;DHT22;18289;51.330;4.946;2022-07-19T04:59:46;21.00;99.90
31695;DHT22;18289;51.330;4.946;2022-07-19T05:02:12;21.00;99.90
31695;DHT22;18289;51.330;4.946;2022-07-19T05:04:38;21.00;99.90
31695;DHT22;18289;51.330;4.946;2022-07-19T05:07:04;21.10;99.90
31695;DHT22;18289;51.330;4.946;2022-07-19T05:09:30;21.20;99.90
31695;DHT22;18289;51.330;4.946;2022-07-19T05:11:56;21.30;99.90
31695;DHT22;18289;51.330;4.946;2022-07-19T05:14:22;21.30;99.90
31695;DHT22;18289;51.330;4.946;2022-07-19T05:16:48;21.50;99.90
31695;DHT22;18289;51.330;4.946;2022-07-19T05:19:17;21.50;99.90
31695;DHT22;18289;51.330;4.946;2022-07-19T05:21:44;21.70;99.90
31695;DHT22;18289;51.330;4.946;2022-07-19T05:24:10;21.60;99.90
31695;DHT22;18289;51.330;4.946;2022-07-19T05:26:35;21.70;99.90
31695;DHT22;18289;51.330;4.946;2022-07-19T05:29:02;21.90;99.90
31695;DHT22;18289;51.330;4.946;2022-07-19T05:31:29;21.90;99.90
31695;DHT22;18289;51.330;4.946;2022-07-19T05:33:55;21.90;99.90
31695;DHT22;18289;51.330;4.946;2022-07-19T05:36:21;22.00;99.90
31695;DHT22;18289;51.330;4.946;2022-07-19T05:38:47;22.10;99.90
31695;DHT22;18289;51.330;4.946;2022-07-19T05:41:12;22.10;99.90
31695;DHT22;18289;51.330;4.946;2022-07-19T05:43:41;22.20;99.90
31695;DHT22;18289;51.330;4.946;2022-07-19T05:46:07;22.30;99.90
31695;DHT22;18289;51.330;4.946;2022-07-19T05:48:33;22.40;99.90
31695;DHT22;18289;51.330;4.946;2022-07-19T05:50:59;22.50;99.90
31695;DHT22;18289;51.330;4.946;2022-07-19T05:53:26;22.60;99.90
31695;DHT22;18289;51.330;4.946;2022-07-19T05:55:52;22.60;99.90
31695;DHT22;18289;51.330;4.946;2022-07-19T05:58:17;22.80;99.90
31695;DHT22;18289;51.330;4.946;2022-07-19T06:00:45;22.70;99.90
31695;DHT22;18289;51.330;4.946;2022-07-19T06:03:29;22.90;99.90
31695;DHT22;18289;51.330;4.946;2022-07-19T06:05:55;23.00;99.90
31695;DHT22;18289;51.330;4.946;2022-07-19T06:08:21;23.10;99.60
31695;DHT22;18289;51.330;4.946;2022-07-19T06:10:47;23.20;99.40
31695;DHT22;18289;51.330;4.946;2022-07-19T06:13:13;23.40;97.50
31695;DHT22;18289;51.330;4.946;2022-07-19T06:15:39;23.40;98.60
31695;DHT22;18289;51.330;4.946;2022-07-19T06:18:05;23.40;95.60
31695;DHT22;18289;51.330;4.946;2022-07-19T06:20:31;23.70;95.20
31695;DHT22;18289;51.330;4.946;2022-07-19T06:22:57;23.80;95.60
31695;DHT22;18289;51.330;4.946;2022-07-19T06:25:22;23.90;95.40
31695;DHT22;18289;51.330;4.946;2022-07-19T06:27:48;24.00;96.50
31695;DHT22;18289;51.330;4.946;2022-07-19T06:30:14;24.30;94.70
31695;DHT22;18289;51.330;4.946;2022-07-19T06:32:40;24.30;95.70
31695;DHT22;18289;51.330;4.946;2022-07-19T06:35:06;24.30;95.10
31695;DHT22;18289;51.330;4.946;2022-07-19T06:37:32;24.40;95.70
31695;DHT22;18289;51.330;4.946;2022-07-19T06:39:58;24.50;95.30
31695;DHT22;18289;51.330;4.946;2022-07-19T06:42:24;24.60;94.10
31695;DHT22;18289;51.330;4.946;2022-07-19T06:44:49;24.70;94.20
31695;DHT22;18289;51.330;4.946;2022-07-19T06:47:15;24.80;94.60
31695;DHT22;18289;51.330;4.946;2022-07-19T06:49:41;24.90;95.70
31695;DHT22;18289;51.330;4.946;2022-07-19T06:52:07;25.00;95.60
31695;DHT22;18289;51.330;4.946;2022-07-19T06:54:33;25.10;94.50
31695;DHT22;18289;51.330;4.946;2022-07-19T06:56:59;25.10;93.70
31695;DHT22;18289;51.330;4.946;2022-07-19T06:59:25;25.20;93.70
31695;DHT22;18289;51.330;4.946;2022-07-19T07:01:50;25.30;93.50
31695;DHT22;18289;51.330;4.946;2022-07-19T07:04:16;25.30;92.50
31695;DHT22;18289;51.330;4.946;2022-07-19T07:06:42;25.40;92.30
31695;DHT22;18289;51.330;4.946;2022-07-19T07:09:08;25.50;91.70
31695;DHT22;18289;51.330;4.946;2022-07-19T07:11:34;25.60;92.10
31695;DHT22;18289;51.330;4.946;2022-07-19T07:14:00;25.70;92.70
31695;DHT22;18289;51.330;4.946;2022-07-19T07:16:25;25.80;93.80
31695;DHT22;18289;51.330;4.946;2022-07-19T07:18:51;25.90;92.00
31695;DHT22;18289;51.330;4.946;2022-07-19T07:21:17;26.00;93.10
31695;DHT22;18289;51.330;4.946;2022-07-19T07:23:43;26.00;93.70
31695;DHT22;18289;51.330;4.946;2022-07-19T07:26:09;26.20;92.00
31695;DHT22;18289;51.330;4.946;2022-07-19T07:28:34;26.20;91.90
31695;DHT22;18289;51.330;4.946;2022-07-19T07:31:01;26.40;91.60
31695;DHT22;18289;51.330;4.946;2022-07-19T07:33:26;26.50;91.30
31695;DHT22;18289;51.330;4.946;2022-07-19T07:35:52;26.60;92.30
31695;DHT22;18289;51.330;4.946;2022-07-19T07:38:18;26.70;92.90
31695;DHT22;18289;51.330;4.946;2022-07-19T07:40:44;26.70;92.30
31695;DHT22;18289;51.330;4.946;2022-07-19T07:43:09;26.80;91.80
31695;DHT22;18289;51.330;4.946;2022-07-19T07:45:38;27.00;92.20
31695;DHT22;18289;51.330;4.946;2022-07-19T07:48:04;27.10;92.10
31695;DHT22;18289;51.330;4.946;2022-07-19T07:50:30;27.20;92.20
31695;DHT22;18289;51.330;4.946;2022-07-19T07:52:55;27.30;92.50
31695;DHT22;18289;51.330;4.946;2022-07-19T07:55:21;27.30;91.30
31695;DHT22;18289;51.330;4.946;2022-07-19T07:57:47;27.40;91.40
31695;DHT22;18289;51.330;4.946;2022-07-19T08:00:14;27.50;91.10
31695;DHT22;18289;51.330;4.946;2022-07-19T08:02:41;27.70;90.70
31695;DHT22;18289;51.330;4.946;2022-07-19T08:05:08;27.80;90.50
31695;DHT22;18289;51.330;4.946;2022-07-19T08:07:34;27.90;90.30
31695;DHT22;18289;51.330;4.946;2022-07-19T08:10:01;28.00;89.80
31695;DHT22;18289;51.330;4.946;2022-07-19T08:12:27;28.10;88.10
31695;DHT22;18289;51.330;4.946;2022-07-19T08:14:52;28.20;89.90
31695;DHT22;18289;51.330;4.946;2022-07-19T08:17:18;28.30;88.00
31695;DHT22;18289;51.330;4.946;2022-07-19T08:19:44;28.30;87.20
31695;DHT22;18289;51.330;4.946;2022-07-19T08:22:10;28.50;87.20
31695;DHT22;18289;51.330;4.946;2022-07-19T08:24:39;28.60;85.10
31695;DHT22;18289;51.330;4.946;2022-07-19T08:27:05;28.80;87.20
31695;DHT22;18289;51.330;4.946;2022-07-19T08:29:30;28.90;89.60
31695;DHT22;18289;51.330;4.946;2022-07-19T08:31:56;29.10;87.30
31695;DHT22;18289;51.330;4.946;2022-07-19T08:34:22;29.20;87.20
31695;DHT22;18289;51.330;4.946;2022-07-19T08:36:47;29.20;87.30
31695;DHT22;18289;51.330;4.946;2022-07-19T08:39:13;29.40;83.80
31695;DHT22;18289;51.330;4.946;2022-07-19T08:41:42;29.50;84.40
31695;DHT22;18289;51.330;4.946;2022-07-19T08:44:08;29.60;83.90
31695;DHT22;18289;51.330;4.946;2022-07-19T08:46:36;29.70;83.90
31695;DHT22;18289;51.330;4.946;2022-07-19T08:49:02;30.00;82.50
31695;DHT22;18289;51.330;4.946;2022-07-19T08:51:28;30.10;83.60
31695;DHT22;18289;51.330;4.946;2022-07-19T08:53:54;30.10;79.90
31695;DHT22;18289;51.330;4.946;2022-07-19T08:56:20;30.40;81.90
31695;DHT22;18289;51.330;4.946;2022-07-19T08:59:05;30.50;81.20
31695;DHT22;18289;51.330;4.946;2022-07-19T09:01:31;30.70;79.50
31695;DHT22;18289;51.330;4.946;2022-07-19T09:04:05;30.80;77.90
31695;DHT22;18289;51.330;4.946;2022-07-19T09:09:11;31.20;78.50
31695;DHT22;18289;51.330;4.946;2022-07-19T09:11:40;31.30;78.10
31695;DHT22;18289;51.330;4.946;2022-07-19T09:14:15;31.40;75.90
31695;DHT22;18289;51.330;4.946;2022-07-19T09:16:53;31.60;76.30
31695;DHT22;18289;51.330;4.946;2022-07-19T09:19:20;31.70;77.40
31695;DHT22;18289;51.330;4.946;2022-07-19T09:21:51;31.90;77.90
31695;DHT22;18289;51.330;4.946;2022-07-19T09:24:18;32.00;75.10
31695;DHT22;18289;51.330;4.946;2022-07-19T09:27:04;32.00;79.20
31695;DHT22;18289;51.330;4.946;2022-07-19T09:29:32;32.20;76.30
31695;DHT22;18289;51.330;4.946;2022-07-19T09:34:37;32.50;75.20
31695;DHT22;18289;51.330;4.946;2022-07-19T09:37:21;32.60;72.00
31695;DHT22;18289;51.330;4.946;2022-07-19T09:39:53;32.90;71.30
31695;DHT22;18289;51.330;4.946;2022-07-19T09:42:33;33.10;73.80
31695;DHT22;18289;51.330;4.946;2022-07-19T09:45:07;33.30;69.50
31695;DHT22;18289;51.330;4.946;2022-07-19T09:47:35;33.50;67.70
31695;DHT22;18289;51.330;4.946;2022-07-19T09:50:04;33.80;70.60
31695;DHT22;18289;51.330;4.946;2022-07-19T09:52:30;34.30;65.00
31695;DHT22;18289;51.330;4.946;2022-07-19T09:55:00;34.70;65.80
31695;DHT22;18289;51.330;4.946;2022-07-19T09:57:27;35.40;63.00
31695;DHT22;18289;51.330;4.946;2022-07-19T09:59:55;36.00;59.80
31695;DHT22;18289;51.330;4.946;2022-07-19T10:02:23;36.70;59.90
31695;DHT22;18289;51.330;4.946;2022-07-19T10:04:50;37.80;58.30
31695;DHT22;18289;51.330;4.946;2022-07-19T10:07:17;38.90;57.10
31695;DHT22;18289;51.330;4.946;2022-07-19T10:09:47;40.20;58.90
31695;DHT22;18289;51.330;4.946;2022-07-19T10:12:13;41.40;53.60
31695;DHT22;18289;51.330;4.946;2022-07-19T10:14:39;42.30;49.90
31695;DHT22;18289;51.330;4.946;2022-07-19T10:17:23;43.00;50.40
31695;DHT22;18289;51.330;4.946;2022-07-19T10:19:52;44.10;50.20
31695;DHT22;18289;51.330;4.946;2022-07-19T10:22:21;44.70;47.70
31695;DHT22;18289;51.330;4.946;2022-07-19T10:29:50;46.50;44.50
31695;DHT22;18289;51.330;4.946;2022-07-19T10:32:16;46.60;42.50
31695;DHT22;18289;51.330;4.946;2022-07-19T10:34:43;46.90;39.00
31695;DHT22;18289;51.330;4.946;2022-07-19T10:37:12;47.30;38.90
31695;DHT22;18289;51.330;4.946;2022-07-19T10:39:41;47.60;40.70
31695;DHT22;18289;51.330;4.946;2022-07-19T10:44:35;47.00;37.90
31695;DHT22;18289;51.330;4.946;2022-07-19T10:47:21;46.30;38.30
31695;DHT22;18289;51.330;4.946;2022-07-19T10:49:48;45.70;39.10
31695;DHT22;18289;51.330;4.946;2022-07-19T11:00:30;47.70;38.00
31695;DHT22;18289;51.330;4.946;2022-07-19T11:05:56;48.30;35.30
31695;DHT22;18289;51.330;4.946;2022-07-19T11:08:39;47.90;34.10
31695;DHT22;18289;51.330;4.946;2022-07-19T11:11:10;48.20;35.50
31695;DHT22;18289;51.330;4.946;2022-07-19T11:13:38;48.10;36.70
31695;DHT22;18289;51.330;4.946;2022-07-19T11:16:05;47.50;36.50
31695;DHT22;18289;51.330;4.946;2022-07-19T11:18:32;47.10;35.60
31695;DHT22;18289;51.330;4.946;2022-07-19T11:20:59;46.90;35.90
31695;DHT22;18289;51.330;4.946;2022-07-19T11:23:30;46.40;35.60
31695;DHT22;18289;51.330;4.946;2022-07-19T11:26:12;45.40;37.90
31695;DHT22;18289;51.330;4.946;2022-07-19T11:28:39;44.60;35.00
31695;DHT22;18289;51.330;4.946;2022-07-19T11:31:22;43.50;37.50
31695;DHT22;18289;51.330;4.946;2022-07-19T11:33:52;42.70;38.20
31695;DHT22;18289;51.330;4.946;2022-07-19T11:36:19;42.00;39.00
31695;DHT22;18289;51.330;4.946;2022-07-19T11:38:50;40.90;43.70
31695;DHT22;18289;51.330;4.946;2022-07-19T11:41:19;40.30;41.30
31695;DHT22;18289;51.330;4.946;2022-07-19T11:44:02;39.80;39.50
31695;DHT22;18289;51.330;4.946;2022-07-19T11:46:32;39.40;41.20
31695;DHT22;18289;51.330;4.946;2022-07-19T11:49:04;39.10;42.90
31695;DHT22;18289;51.330;4.946;2022-07-19T11:51:30;38.60;42.00
31695;DHT22;18289;51.330;4.946;2022-07-19T11:53:57;38.40;41.70
31695;DHT22;18289;51.330;4.946;2022-07-19T11:56:29;38.20;42.40
31695;DHT22;18289;51.330;4.946;2022-07-19T11:58:58;37.90;43.00
31695;DHT22;18289;51.330;4.946;2022-07-19T12:01:35;37.90;43.30
31695;DHT22;18289;51.330;4.946;2022-07-19T12:04:06;37.70;41.00
31695;DHT22;18289;51.330;4.946;2022-07-19T12:09:08;37.50;43.80
31695;DHT22;18289;51.330;4.946;2022-07-19T12:11:49;37.50;44.70
31695;DHT22;18289;51.330;4.946;2022-07-19T12:14:23;37.40;46.20
31695;DHT22;18289;51.330;4.946;2022-07-19T12:19:35;37.40;41.90
31695;DHT22;18289;51.330;4.946;2022-07-19T12:22:01;37.40;42.10
31695;DHT22;18289;51.330;4.946;2022-07-19T12:24:27;37.70;42.80
31695;DHT22;18289;51.330;4.946;2022-07-19T12:27:07;38.30;43.70
31695;DHT22;18289;51.330;4.946;2022-07-19T12:29:36;38.80;41.00
31695;DHT22;18289;51.330;4.946;2022-07-19T12:32:11;38.90;45.00
31695;DHT22;18289;51.330;4.946;2022-07-19T12:34:50;39.10;41.50
31695;DHT22;18289;51.330;4.946;2022-07-19T12:37:30;39.30;42.40
31695;DHT22;18289;51.330;4.946;2022-07-19T12:40:12;40.20;40.90
31695;DHT22;18289;51.330;4.946;2022-07-19T12:42:49;41.10;40.40
31695;DHT22;18289;51.330;4.946;2022-07-19T12:45:20;41.80;37.90
31695;DHT22;18289;51.330;4.946;2022-07-19T12:47:47;42.70;40.50
31695;DHT22;18289;51.330;4.946;2022-07-19T12:50:54;44.00;36.90
31695;DHT22;18289;51.330;4.946;2022-07-19T12:53:19;45.40;36.30
31695;DHT22;18289;51.330;4.946;2022-07-19T12:55:47;46.70;35.30
31695;DHT22;18289;51.330;4.946;2022-07-19T12:58:14;48.10;33.90
31695;DHT22;18289;51.330;4.946;2022-07-19T13:01:00;49.00;35.90
31695;DHT22;18289;51.330;4.946;2022-07-19T13:03:26;48.80;33.70
31695;DHT22;18289;51.330;4.946;2022-07-19T13:05:52;49.10;34.00
31695;DHT22;18289;51.330;4.946;2022-07-19T13:08:18;49.40;35.00
31695;DHT22;18289;51.330;4.946;2022-07-19T13:10:44;50.30;33.70
31695;DHT22;18289;51.330;4.946;2022-07-19T13:13:10;50.70;30.80
31695;DHT22;18289;51.330;4.946;2022-07-19T13:15:36;50.60;30.10
31695;DHT22;18289;51.330;4.946;2022-07-19T13:18:01;50.80;32.30
31695;DHT22;18289;51.330;4.946;2022-07-19T13:20:29;51.20;30.90
31695;DHT22;18289;51.330;4.946;2022-07-19T13:22:55;51.50;30.60
31695;DHT22;18289;51.330;4.946;2022-07-19T13:25:21;51.50;31.40
31695;DHT22;18289;51.330;4.946;2022-07-19T13:27:47;52.10;30.50
31695;DHT22;18289;51.330;4.946;2022-07-19T13:30:12;52.10;30.20
31695;DHT22;18289;51.330;4.946;2022-07-19T13:32:39;52.60;31.00
31695;DHT22;18289;51.330;4.946;2022-07-19T13:35:06;52.70;30.90
31695;DHT22;18289;51.330;4.946;2022-07-19T13:37:32;53.00;28.60
31695;DHT22;18289;51.330;4.946;2022-07-19T13:39:57;53.00;34.10
31695;DHT22;18289;51.330;4.946;2022-07-19T13:42:23;52.80;29.80
31695;DHT22;18289;51.330;4.946;2022-07-19T13:44:49;52.60;30.10
31695;DHT22;18289;51.330;4.946;2022-07-19T13:47:15;52.70;28.50
31695;DHT22;18289;51.330;4.946;2022-07-19T13:49:40;52.90;28.00
31695;DHT22;18289;51.330;4.946;2022-07-19T13:52:06;52.90;28.80
31695;DHT22;18289;51.330;4.946;2022-07-19T13:54:32;52.80;28.60
31695;DHT22;18289;51.330;4.946;2022-07-19T13:56:58;52.80;28.50
31695;DHT22;18289;51.330;4.946;2022-07-19T13:59:24;53.00;28.90
31695;DHT22;18289;51.330;4.946;2022-07-19T14:01:49;53.10;30.30
31695;DHT22;18289;51.330;4.946;2022-07-19T14:04:15;53.30;28.50
31695;DHT22;18289;51.330;4.946;2022-07-19T14:06:41;53.10;29.80
31695;DHT22;18289;51.330;4.946;2022-07-19T14:09:07;53.20;28.40
31695;DHT22;18289;51.330;4.946;2022-07-19T14:11:33;53.40;28.60
31695;DHT22;18289;51.330;4.946;2022-07-19T14:14:00;53.50;30.10
31695;DHT22;18289;51.330;4.946;2022-07-19T14:16:26;52.90;30.00
31695;DHT22;18289;51.330;4.946;2022-07-19T14:18:52;52.70;29.40
31695;DHT22;18289;51.330;4.946;2022-07-19T14:21:18;52.40;30.10
31695;DHT22;18289;51.330;4.946;2022-07-19T14:23:44;52.60;29.80
31695;DHT22;18289;51.330;4.946;2022-07-19T14:26:10;52.70;30.40
31695;DHT22;18289;51.330;4.946;2022-07-19T14:28:36;53.40;31.10
31695;DHT22;18289;51.330;4.946;2022-07-19T14:31:01;53.50;29.40
31695;DHT22;18289;51.330;4.946;2022-07-19T14:33:27;52.80;29.60
31695;DHT22;18289;51.330;4.946;2022-07-19T14:35:53;53.10;29.50
31695;DHT22;18289;51.330;4.946;2022-07-19T14:38:19;53.60;29.10
31695;DHT22;18289;51.330;4.946;2022-07-19T14:40:44;53.60;29.40
31695;DHT22;18289;51.330;4.946;2022-07-19T14:43:10;54.00;29.30
31695;DHT22;18289;51.330;4.946;2022-07-19T14:45:36;53.40;28.70
31695;DHT22;18289;51.330;4.946;2022-07-19T14:48:02;53.40;29.20
31695;DHT22;18289;51.330;4.946;2022-07-19T14:50:27;52.50;29.90
31695;DHT22;18289;51.330;4.946;2022-07-19T14:52:53;52.70;29.60
31695;DHT22;18289;51.330;4.946;2022-07-19T14:55:19;52.90;29.50
31695;DHT22;18289;51.330;4.946;2022-07-19T14:57:45;53.20;28.90
31695;DHT22;18289;51.330;4.946;2022-07-19T15:00:11;53.40;29.00
31695;DHT22;18289;51.330;4.946;2022-07-19T15:02:38;53.10;28.90
31695;DHT22;18289;51.330;4.946;2022-07-19T15:05:05;53.20;30.60
31695;DHT22;18289;51.330;4.946;2022-07-19T15:07:31;53.20;30.40
31695;DHT22;18289;51.330;4.946;2022-07-19T15:09:56;52.90;29.10
31695;DHT22;18289;51.330;4.946;2022-07-19T15:12:23;52.90;28.90
31695;DHT22;18289;51.330;4.946;2022-07-19T15:14:49;52.80;28.80
31695;DHT22;18289;51.330;4.946;2022-07-19T15:17:16;52.90;28.90
31695;DHT22;18289;51.330;4.946;2022-07-19T15:19:42;53.30;29.30
31695;DHT22;18289;51.330;4.946;2022-07-19T15:22:08;53.30;28.40
31695;DHT22;18289;51.330;4.946;2022-07-19T15:24:34;53.20;29.70
31695;DHT22;18289;51.330;4.946;2022-07-19T15:27:00;53.30;30.10
31695;DHT22;18289;51.330;4.946;2022-07-19T15:29:26;53.00;29.30
31695;DHT22;18289;51.330;4.946;2022-07-19T15:31:52;52.70;29.10
31695;DHT22;18289;51.330;4.946;2022-07-19T15:34:19;51.90;29.20
31695;DHT22;18289;51.330;4.946;2022-07-19T15:36:45;51.90;29.40
31695;DHT22;18289;51.330;4.946;2022-07-19T15:39:10;51.80;30.00
31695;DHT22;18289;51.330;4.946;2022-07-19T15:41:36;51.40;29.70
31695;DHT22;18289;51.330;4.946;2022-07-19T15:44:03;50.60;29.90
31695;DHT22;18289;51.330;4.946;2022-07-19T15:46:29;50.80;30.40
31695;DHT22;18289;51.330;4.946;2022-07-19T15:48:56;50.30;29.50
31695;DHT22;18289;51.330;4.946;2022-07-19T15:51:22;50.40;29.90
31695;DHT22;18289;51.330;4.946;2022-07-19T15:53:48;50.40;29.90
31695;DHT22;18289;51.330;4.946;2022-07-19T15:56:14;50.90;29.70
31695;DHT22;18289;51.330;4.946;2022-07-19T15:58:40;50.40;29.80
31695;DHT22;18289;51.330;4.946;2022-07-19T16:01:06;50.60;29.70
31695;DHT22;18289;51.330;4.946;2022-07-19T16:03:31;50.70;29.70
31695;DHT22;18289;51.330;4.946;2022-07-19T16:05:57;50.40;29.50
31695;DHT22;18289;51.330;4.946;2022-07-19T16:08:23;49.80;29.30
31695;DHT22;18289;51.330;4.946;2022-07-19T16:10:51;48.90;30.00
31695;DHT22;18289;51.330;4.946;2022-07-19T16:13:17;47.30;31.60
31695;DHT22;18289;51.330;4.946;2022-07-19T16:15:43;46.10;32.30
31695;DHT22;18289;51.330;4.946;2022-07-19T16:18:09;45.20;33.10
31695;DHT22;18289;51.330;4.946;2022-07-19T16:20:35;44.20;33.80
31695;DHT22;18289;51.330;4.946;2022-07-19T16:23:00;43.40;33.50
31695;DHT22;18289;51.330;4.946;2022-07-19T16:25:26;42.60;34.00
31695;DHT22;18289;51.330;4.946;2022-07-19T16:27:52;42.00;34.30
31695;DHT22;18289;51.330;4.946;2022-07-19T16:30:19;41.60;35.70
31695;DHT22;18289;51.330;4.946;2022-07-19T16:32:44;41.00;36.20
31695;DHT22;18289;51.330;4.946;2022-07-19T16:35:10;40.60;36.30
31695;DHT22;18289;51.330;4.946;2022-07-19T16:37:36;40.40;37.30
31695;DHT22;18289;51.330;4.946;2022-07-19T16:40:04;40.20;37.10
31695;DHT22;18289;51.330;4.946;2022-07-19T16:42:30;39.90;36.70
31695;DHT22;18289;51.330;4.946;2022-07-19T16:44:56;39.70;38.40
31695;DHT22;18289;51.330;4.946;2022-07-19T16:47:22;39.60;37.60
31695;DHT22;18289;51.330;4.946;2022-07-19T16:49:48;39.40;38.40
31695;DHT22;18289;51.330;4.946;2022-07-19T16:52:14;39.20;37.40
31695;DHT22;18289;51.330;4.946;2022-07-19T16:54:40;39.20;37.20
31695;DHT22;18289;51.330;4.946;2022-07-19T16:57:06;39.00;37.60
31695;DHT22;18289;51.330;4.946;2022-07-19T16:59:32;38.80;39.00
31695;DHT22;18289;51.330;4.946;2022-07-19T17:01:58;38.90;38.50